createdAt,value
2018-04-25T00:00:14.611Z,22.30
2018-04-25T00:02:47.859Z,22.07
2018-04-25T00:05:20.506Z,20.70
2018-04-25T00:07:52.925Z,18.47
2018-04-25T00:10:25.555Z,18.50
2018-04-25T00:12:58.951Z,18.87
2018-04-25T00:15:31.416Z,18.40
2018-04-25T00:18:03.891Z,18.47
2018-04-25T00:20:36.432Z,17.93
2018-04-25T00:23:09.012Z,16.90
2018-04-25T00:25:41.605Z,18.73
2018-04-25T00:28:14.399Z,17.10
2018-04-25T00:30:47.186Z,17.43
2018-04-25T00:33:19.670Z,16.77
2018-04-25T00:35:52.436Z,16.80
2018-04-25T00:38:25.621Z,16.80
2018-04-25T00:40:58.106Z,15.37
2018-04-25T00:43:30.631Z,14.67
2018-04-25T00:46:04.091Z,16.13
2018-04-25T00:48:37.447Z,14.00
2018-04-25T00:51:10.097Z,13.80
2018-04-25T00:53:45.204Z,14.13
2018-04-25T00:56:17.815Z,14.67
2018-04-25T00:58:50.454Z,13.93
2018-04-25T01:01:23.054Z,12.73
2018-04-25T01:03:55.602Z,13.67
2018-04-25T01:06:28.291Z,14.30
2018-04-25T01:09:01.517Z,13.20
2018-04-25T01:11:34.889Z,13.90
2018-04-25T01:14:07.434Z,13.27
2018-04-25T01:16:40.184Z,12.20
2018-04-25T01:19:12.721Z,12.70
2018-04-25T01:21:48.014Z,12.73
2018-04-25T01:24:21.366Z,11.00
2018-04-25T01:26:54.162Z,11.63
2018-04-25T01:29:27.611Z,10.90
2018-04-25T01:32:02.977Z,11.17
2018-04-25T01:34:41.835Z,10.87
2018-04-25T01:37:26.530Z,10.73
2018-04-25T01:39:59.925Z,9.83
2018-04-25T01:42:39.141Z,10.07
2018-04-25T01:45:25.625Z,9.23
2018-04-25T01:48:04.054Z,9.90
2018-04-25T01:50:37.827Z,8.60
2018-04-25T01:53:22.696Z,8.70
2018-04-25T01:56:07.524Z,9.20
2018-04-25T01:58:52.379Z,8.00
2018-04-25T02:01:25.439Z,8.13
2018-04-25T02:03:58.015Z,7.97
2018-04-25T02:06:30.455Z,8.00
2018-04-25T02:09:03.894Z,7.70
2018-04-25T02:11:36.388Z,7.87
2018-04-25T02:14:09.011Z,8.10
2018-04-25T02:16:41.554Z,7.77
2018-04-25T02:19:13.991Z,7.37
2018-04-25T02:21:46.590Z,7.20
2018-04-25T02:24:18.915Z,7.20
2018-04-25T02:26:51.602Z,6.70
2018-04-25T02:29:24.173Z,6.87
2018-04-25T02:31:57.520Z,6.97
2018-04-25T02:34:30.144Z,7.10
2018-04-25T02:37:02.672Z,7.07
2018-04-25T02:39:35.028Z,6.20
2018-04-25T02:42:08.118Z,6.63
2018-04-25T02:44:40.559Z,6.30
2018-04-25T02:47:13.836Z,6.80
2018-04-25T02:49:46.258Z,6.40
2018-04-25T02:52:19.471Z,6.67
2018-04-25T02:54:52.714Z,6.03
2018-04-25T02:57:25.398Z,6.47
2018-04-25T02:59:57.923Z,6.20
2018-04-25T03:02:31.244Z,5.97
2018-04-25T03:05:03.901Z,6.40
2018-04-25T03:07:36.359Z,6.20
2018-04-25T03:10:08.744Z,5.20
2018-04-25T03:12:42.035Z,6.00
2018-04-25T03:15:14.508Z,6.63
2018-04-25T03:17:46.883Z,6.10
2018-04-25T03:20:19.480Z,5.47
2018-04-25T03:22:52.680Z,5.33
2018-04-25T03:25:25.220Z,5.27
2018-04-25T03:28:02.904Z,5.63
2018-04-25T03:30:36.084Z,5.67
2018-04-25T03:33:08.530Z,6.07
2018-04-25T03:35:41.195Z,4.93
2018-04-25T03:38:14.651Z,5.07
2018-04-25T03:40:47.240Z,5.73
2018-04-25T03:43:19.814Z,5.47
2018-04-25T03:45:52.166Z,6.00
2018-04-25T03:48:24.681Z,5.50
2018-04-25T03:50:57.259Z,5.20
2018-04-25T03:53:30.640Z,5.80
2018-04-25T03:56:03.298Z,5.50
2018-04-25T03:58:35.753Z,5.80
2018-04-25T04:01:08.144Z,5.77
2018-04-25T04:03:41.456Z,6.17
2018-04-25T04:06:14.152Z,6.70
2018-04-25T04:08:46.761Z,6.60
2018-04-25T04:11:19.480Z,6.67
2018-04-25T04:13:52.196Z,6.20
2018-04-25T04:16:24.713Z,6.67
2018-04-25T04:18:57.083Z,7.10
2018-04-25T04:21:29.644Z,6.83
2018-04-25T04:24:03.773Z,7.93
2018-04-25T04:26:38.862Z,7.10
2018-04-25T04:29:11.404Z,7.97
2018-04-25T04:31:44.003Z,8.50
2018-04-25T04:34:16.604Z,8.10
2018-04-25T04:36:49.144Z,7.40
2018-04-25T04:39:21.699Z,8.77
2018-04-25T04:41:54.395Z,7.60
2018-04-25T04:44:26.934Z,8.47
2018-04-25T04:46:59.335Z,7.73
2018-04-25T04:49:32.089Z,8.37
2018-04-25T04:52:04.704Z,8.03
2018-04-25T04:54:37.369Z,8.50
2018-04-25T04:57:09.905Z,8.00
2018-04-25T04:59:42.619Z,8.47
2018-04-25T05:02:15.481Z,8.07
2018-04-25T05:04:49.584Z,8.97
2018-04-25T05:07:22.138Z,8.80
2018-04-25T05:09:55.411Z,8.77
2018-04-25T05:12:27.961Z,9.47
2018-04-25T05:15:00.785Z,9.10
2018-04-25T05:17:33.427Z,9.27
2018-04-25T05:20:06.096Z,9.70
2018-04-25T05:22:38.755Z,9.13
2018-04-25T05:25:11.321Z,9.80
2018-04-25T05:27:44.117Z,10.13
2018-04-25T05:30:16.622Z,9.67
2018-04-25T05:32:49.831Z,9.43
2018-04-25T05:35:22.424Z,10.47
2018-04-25T05:37:54.976Z,9.73
2018-04-25T05:40:28.590Z,11.07
2018-04-25T05:43:01.097Z,10.57
2018-04-25T05:45:34.393Z,10.63
2018-04-25T05:48:06.989Z,10.50
2018-04-25T05:50:39.580Z,10.70
2018-04-25T05:53:12.776Z,10.40
2018-04-25T05:55:45.423Z,10.17
2018-04-25T05:58:18.009Z,10.20
2018-04-25T06:00:51.268Z,10.17
2018-04-25T06:03:23.923Z,10.30
2018-04-25T06:05:56.558Z,10.37
2018-04-25T06:08:29.183Z,10.77
2018-04-25T06:11:01.739Z,10.80
2018-04-25T06:13:34.826Z,10.47
2018-04-25T06:16:07.303Z,10.13
2018-04-25T06:18:39.719Z,10.63
2018-04-25T06:21:12.912Z,11.60
2018-04-25T06:23:45.252Z,11.43
2018-04-25T06:26:17.849Z,10.93
2018-04-25T06:28:51.212Z,10.67
2018-04-25T06:31:24.675Z,10.40
2018-04-25T06:33:57.387Z,10.77
2018-04-25T06:36:30.307Z,10.77
2018-04-25T06:39:03.032Z,9.97
2018-04-25T06:41:35.623Z,9.77
2018-04-25T06:44:08.197Z,10.00
2018-04-25T06:46:40.581Z,9.10
2018-04-25T06:49:13.051Z,9.20
2018-04-25T06:51:45.598Z,9.30
2018-04-25T06:54:18.138Z,9.23
2018-04-25T06:56:50.970Z,8.93
2018-04-25T06:59:24.090Z,8.43
2018-04-25T07:01:57.339Z,8.33
2018-04-25T07:04:29.799Z,8.27
2018-04-25T07:07:02.429Z,7.77
2018-04-25T07:09:35.157Z,6.23
2018-04-25T07:12:08.546Z,5.90
2018-04-25T07:14:40.944Z,5.10
2018-04-25T07:17:13.456Z,4.20
2018-04-25T07:19:46.128Z,4.17
2018-04-25T07:22:18.705Z,3.87
2018-04-25T07:24:52.028Z,3.70
2018-04-25T07:27:24.391Z,3.87
2018-04-25T07:29:56.783Z,3.97
2018-04-25T07:32:29.470Z,3.40
2018-04-25T07:35:01.941Z,3.60
2018-04-25T07:37:34.641Z,3.37
2018-04-25T07:40:07.272Z,3.57
2018-04-25T07:42:40.793Z,4.00
2018-04-25T07:45:13.322Z,4.07
2018-04-25T07:47:45.690Z,4.50
2018-04-25T07:50:18.297Z,4.57
2018-04-25T07:52:50.963Z,3.93
2018-04-25T07:55:23.738Z,4.30
2018-04-25T07:57:56.277Z,5.03
2018-04-25T08:00:28.658Z,5.07
2018-04-25T08:03:01.152Z,4.90
2018-04-25T08:05:33.679Z,4.37
2018-04-25T08:08:06.336Z,4.07
2018-04-25T08:10:38.950Z,4.50
2018-04-25T08:13:24.529Z,4.97
2018-04-25T08:16:09.354Z,4.33
2018-04-25T08:19:06.883Z,4.40
2018-04-25T08:21:40.344Z,5.33
2018-04-25T08:24:12.946Z,5.80
2018-04-25T08:26:45.345Z,7.17
2018-04-25T08:29:18.660Z,7.80
2018-04-25T08:31:52.522Z,8.03
2018-04-25T08:34:25.035Z,8.40
2018-04-25T08:36:57.615Z,8.63
2018-04-25T08:39:30.154Z,7.87
2018-04-25T08:42:03.391Z,7.50
2018-04-25T08:44:36.638Z,8.80
2018-04-25T08:47:10.059Z,7.67
2018-04-25T08:49:43.298Z,8.00
2018-04-25T08:52:15.785Z,8.13
2018-04-25T08:54:48.180Z,8.27
2018-04-25T08:57:20.884Z,8.70
2018-04-25T08:59:53.362Z,8.10
2018-04-25T09:02:26.149Z,8.47
2018-04-25T09:04:58.688Z,8.20
2018-04-25T09:07:31.281Z,8.07
2018-04-25T09:10:03.773Z,7.93
2018-04-25T09:12:36.480Z,8.10
2018-04-25T09:15:09.058Z,8.47
2018-04-25T09:17:41.680Z,8.00
2018-04-25T09:20:15.490Z,8.30
2018-04-25T09:22:48.655Z,8.10
2018-04-25T09:25:21.960Z,7.33
2018-04-25T09:27:54.439Z,6.63
2018-04-25T09:30:27.454Z,6.93
2018-04-25T09:32:59.857Z,7.13
2018-04-25T09:35:32.549Z,6.80
2018-04-25T09:38:05.214Z,6.17
2018-04-25T09:40:37.845Z,6.37
2018-04-25T09:43:10.260Z,5.80
2018-04-25T09:45:42.637Z,5.93
2018-04-25T09:48:15.285Z,5.60
2018-04-25T09:50:47.759Z,5.20
2018-04-25T09:53:21.316Z,5.50
2018-04-25T09:55:53.941Z,6.30
2018-04-25T09:58:26.632Z,6.03
2018-04-25T10:00:59.921Z,5.87
2018-04-25T10:03:32.851Z,6.13
2018-04-25T10:06:06.147Z,6.00
2018-04-25T10:08:38.557Z,6.10
2018-04-25T10:11:11.672Z,6.50
2018-04-25T10:13:44.210Z,6.60
2018-04-25T10:16:16.710Z,5.43
2018-04-25T10:18:49.175Z,6.10
2018-04-25T10:21:21.738Z,5.37
2018-04-25T10:23:54.265Z,5.90
2018-04-25T10:26:28.072Z,6.13
2018-04-25T10:29:01.497Z,6.23
2018-04-25T10:31:34.249Z,6.90
2018-04-25T10:34:06.977Z,5.63
2018-04-25T10:36:39.577Z,5.27
2018-04-25T10:39:12.107Z,5.63
2018-04-25T10:41:44.486Z,6.00
2018-04-25T10:44:17.208Z,6.03
2018-04-25T10:46:49.846Z,5.57
2018-04-25T10:49:22.415Z,4.80
2018-04-25T10:51:55.010Z,4.87
2018-04-25T10:54:28.615Z,5.20
2018-04-25T10:57:01.906Z,4.67
2018-04-25T10:59:34.306Z,4.30
2018-04-25T11:02:06.848Z,3.73
2018-04-25T11:04:40.362Z,3.90
2018-04-25T11:07:12.708Z,3.90
2018-04-25T11:09:45.955Z,3.63
2018-04-25T11:12:18.608Z,4.23
2018-04-25T11:14:51.196Z,3.77
2018-04-25T11:17:23.658Z,4.00
2018-04-25T11:19:57.027Z,4.00
2018-04-25T11:22:29.560Z,4.23
2018-04-25T11:25:02.326Z,3.90
2018-04-25T11:27:34.844Z,3.77
2018-04-25T11:30:07.375Z,4.30
2018-04-25T11:32:41.580Z,3.90
2018-04-25T11:35:14.192Z,4.60
2018-04-25T11:37:46.862Z,4.47
2018-04-25T11:40:19.504Z,4.13
2018-04-25T11:42:52.015Z,4.20
2018-04-25T11:45:25.235Z,4.53
2018-04-25T11:47:57.801Z,4.00
2018-04-25T11:50:30.354Z,4.20
2018-04-25T11:53:03.006Z,3.53
2018-04-25T11:55:35.370Z,4.30
2018-04-25T11:58:08.570Z,4.23
2018-04-25T12:00:42.148Z,3.93
2018-04-25T12:03:15.415Z,4.57
2018-04-25T12:05:47.865Z,4.20
2018-04-25T12:08:20.346Z,4.40
2018-04-25T12:10:53.540Z,4.40
2018-04-25T12:13:26.815Z,4.33
2018-04-25T12:15:59.414Z,4.03
2018-04-25T12:18:31.993Z,4.17
2018-04-25T12:21:04.556Z,4.60
2018-04-25T12:23:37.428Z,4.53
2018-04-25T12:26:09.945Z,4.13
2018-04-25T12:28:42.501Z,4.33
2018-04-25T12:31:14.889Z,4.60
2018-04-25T12:33:48.164Z,4.10
2018-04-25T12:36:20.767Z,4.13
2018-04-25T12:38:53.370Z,4.23
2018-04-25T12:41:26.553Z,4.80
2018-04-25T12:43:58.906Z,4.40
2018-04-25T12:46:32.115Z,4.63
2018-04-25T12:49:04.955Z,4.60
2018-04-25T12:51:37.592Z,4.30
2018-04-25T12:54:10.151Z,3.83
2018-04-25T12:56:42.596Z,3.93
2018-04-25T12:59:15.201Z,4.43
2018-04-25T13:01:47.753Z,4.67
2018-04-25T13:04:20.175Z,4.67
2018-04-25T13:06:52.733Z,4.27
2018-04-25T13:09:25.960Z,4.37
2018-04-25T13:11:58.285Z,4.33
2018-04-25T13:14:30.760Z,5.13
2018-04-25T13:17:03.214Z,4.40
2018-04-25T13:19:36.489Z,4.23
2018-04-25T13:22:09.565Z,4.20
2018-04-25T13:24:42.034Z,4.20
2018-04-25T13:27:15.187Z,3.47
2018-04-25T13:29:48.141Z,4.97
2018-04-25T13:32:20.865Z,4.93
2018-04-25T13:34:53.486Z,4.40
2018-04-25T13:37:26.040Z,4.67
2018-04-25T13:39:58.686Z,5.10
2018-04-25T13:42:31.401Z,4.17
2018-04-25T13:45:04.032Z,5.07
2018-04-25T13:47:37.235Z,5.00
2018-04-25T13:50:09.821Z,5.33
2018-04-25T13:52:42.270Z,4.97
2018-04-25T13:55:15.036Z,5.20
2018-04-25T13:57:48.251Z,5.50
2018-04-25T14:00:20.791Z,5.83
2018-04-25T14:02:53.126Z,4.83
2018-04-25T14:05:25.687Z,4.80
2018-04-25T14:07:58.251Z,4.33
2018-04-25T14:10:30.945Z,4.57
2018-04-25T14:13:03.580Z,4.07
2018-04-25T14:15:36.070Z,4.37
2018-04-25T14:18:08.796Z,4.43
2018-04-25T14:20:41.739Z,4.27
2018-04-25T14:23:14.334Z,4.30
2018-04-25T14:25:46.863Z,4.30
2018-04-25T14:28:19.336Z,4.20
2018-04-25T14:30:52.097Z,4.20
2018-04-25T14:33:24.561Z,4.30
2018-04-25T14:35:57.730Z,5.03
2018-04-25T14:38:30.583Z,4.93
2018-04-25T14:41:03.159Z,4.43
2018-04-25T14:43:35.795Z,4.17
2018-04-25T14:46:08.318Z,5.00
2018-04-25T14:48:41.815Z,4.23
2018-04-25T14:51:14.357Z,4.50
2018-04-25T14:53:46.749Z,4.90
2018-04-25T14:56:20.064Z,4.73
2018-04-25T14:58:52.777Z,4.70
2018-04-25T15:01:25.382Z,5.00
2018-04-25T15:03:57.954Z,4.33
2018-04-25T15:06:31.165Z,4.90
2018-04-25T15:09:04.471Z,4.43
2018-04-25T15:11:37.067Z,5.30
2018-04-25T15:14:09.600Z,5.03
2018-04-25T15:16:42.175Z,5.13
2018-04-25T15:19:14.647Z,4.93
2018-04-25T15:21:47.332Z,4.73
2018-04-25T15:24:20.139Z,5.23
2018-04-25T15:26:52.811Z,5.20
2018-04-25T15:29:25.415Z,4.63
2018-04-25T15:31:57.975Z,4.30
2018-04-25T15:34:30.723Z,4.80
2018-04-25T15:37:04.405Z,4.43
2018-04-25T15:39:36.938Z,4.50
2018-04-25T15:42:10.613Z,4.90
2018-04-25T15:44:43.197Z,5.27
2018-04-25T15:47:15.942Z,5.47
2018-04-25T15:49:49.386Z,5.00
2018-04-25T15:52:22.211Z,5.33
2018-04-25T15:54:54.666Z,5.77
2018-04-25T15:57:27.515Z,5.67
2018-04-25T16:00:00.037Z,6.00
2018-04-25T16:02:33.192Z,5.77
2018-04-25T16:05:05.869Z,5.13
2018-04-25T16:07:39.276Z,5.80
2018-04-25T16:10:12.551Z,5.73
2018-04-25T16:12:45.201Z,5.20
2018-04-25T16:15:17.689Z,5.43
2018-04-25T16:17:50.296Z,4.20
2018-04-25T16:20:22.943Z,4.70
2018-04-25T16:22:55.397Z,4.53
2018-04-25T16:25:28.523Z,4.67
2018-04-25T16:28:01.915Z,4.10
2018-04-25T16:30:35.214Z,4.23
2018-04-25T16:33:07.632Z,3.67
2018-04-25T16:35:40.188Z,4.47
2018-04-25T16:38:13.585Z,3.80
2018-04-25T16:40:47.529Z,4.60
2018-04-25T16:43:20.806Z,4.57
2018-04-25T16:45:53.373Z,4.13
2018-04-25T16:48:26.045Z,3.70
2018-04-25T16:50:58.503Z,4.10
2018-04-25T16:53:32.192Z,4.43
2018-04-25T16:56:04.856Z,4.40
2018-04-25T16:58:37.433Z,4.57
2018-04-25T17:01:10.148Z,4.63
2018-04-25T17:03:42.806Z,4.30
2018-04-25T17:06:15.355Z,4.60
2018-04-25T17:08:48.097Z,4.73
2018-04-25T17:11:20.687Z,5.30
2018-04-25T17:13:53.210Z,5.10
2018-04-25T17:16:25.802Z,4.87
2018-04-25T17:18:58.868Z,5.00
2018-04-25T17:21:31.288Z,4.77
2018-04-25T17:24:03.748Z,4.73
2018-04-25T17:26:36.512Z,4.20
2018-04-25T17:29:09.299Z,4.80
2018-04-25T17:31:41.794Z,4.90
2018-04-25T17:34:15.328Z,5.23
2018-04-25T17:36:47.833Z,5.10
2018-04-25T17:39:20.602Z,4.30
2018-04-25T17:41:53.265Z,4.97
2018-04-25T17:44:26.022Z,5.33
2018-04-25T17:46:58.668Z,5.10
2018-04-25T17:49:31.417Z,5.30
2018-04-25T17:52:04.071Z,4.83
2018-04-25T17:54:36.888Z,4.87
2018-04-25T17:57:09.685Z,4.90
2018-04-25T17:59:42.940Z,5.23
2018-04-25T18:02:16.202Z,4.60
2018-04-25T18:04:49.009Z,4.47
2018-04-25T18:07:21.654Z,4.30
2018-04-25T18:09:54.421Z,4.83
2018-04-25T18:12:27.226Z,4.77
2018-04-25T18:14:59.718Z,4.90
2018-04-25T18:17:32.102Z,5.10
2018-04-25T18:20:04.626Z,4.50
2018-04-25T18:22:37.581Z,4.87
2018-04-25T18:25:10.455Z,4.77
2018-04-25T18:27:43.144Z,5.03
2018-04-25T18:30:16.398Z,4.53
2018-04-25T18:32:49.565Z,4.77
2018-04-25T18:35:22.449Z,5.27
2018-04-25T18:37:55.269Z,4.63
2018-04-25T18:40:28.321Z,5.10
2018-04-25T18:43:01.052Z,6.33
2018-04-25T18:45:33.619Z,5.40
2018-04-25T18:48:06.988Z,5.03
2018-04-25T18:50:39.998Z,4.57
2018-04-25T18:53:13.219Z,4.97
2018-04-25T18:55:46.465Z,5.17
2018-04-25T18:58:20.211Z,5.10
2018-04-25T19:00:53.571Z,4.63
2018-04-25T19:03:26.233Z,5.10
2018-04-25T19:05:58.974Z,5.33
2018-04-25T19:08:32.295Z,4.93
2018-04-25T19:11:04.881Z,5.73
2018-04-25T19:13:37.494Z,5.90
2018-04-25T19:16:10.445Z,5.97
2018-04-25T19:18:44.018Z,5.57
2018-04-25T19:21:16.892Z,6.17
2018-04-25T19:23:50.192Z,5.90
2018-04-25T19:26:22.936Z,5.70
2018-04-25T19:28:55.662Z,4.97
2018-04-25T19:31:28.525Z,5.20
2018-04-25T19:34:01.250Z,4.87
2018-04-25T19:36:34.841Z,5.83
2018-04-25T19:39:07.430Z,6.10
2018-04-25T19:41:40.404Z,6.10
2018-04-25T19:44:13.914Z,5.10
2018-04-25T19:46:46.565Z,6.10
2018-04-25T19:49:19.237Z,5.60
2018-04-25T19:51:51.814Z,4.77
2018-04-25T19:54:24.535Z,5.80
2018-04-25T19:56:57.211Z,5.67
2018-04-25T19:59:30.090Z,6.10
2018-04-25T20:02:02.736Z,5.60
2018-04-25T20:04:35.553Z,5.33
2018-04-25T20:07:08.155Z,6.73
2018-04-25T20:09:41.382Z,8.10
2018-04-25T20:12:13.890Z,8.77
2018-04-25T20:14:46.606Z,10.70
2018-04-25T20:17:19.237Z,9.00
2018-04-25T20:19:51.795Z,12.03
2018-04-25T20:22:24.456Z,9.30
2018-04-25T20:24:57.345Z,9.93
2018-04-25T20:27:30.133Z,8.87
2018-04-25T20:30:04.333Z,10.77
2018-04-25T20:32:36.908Z,11.37
2018-04-25T20:35:09.489Z,10.93
2018-04-25T20:37:42.242Z,12.03
2018-04-25T20:40:14.821Z,11.87
2018-04-25T20:42:47.375Z,11.17
2018-04-25T20:45:20.183Z,12.20
2018-04-25T20:47:52.809Z,11.87
2018-04-25T20:50:25.573Z,11.50
2018-04-25T20:52:58.064Z,12.67
2018-04-25T20:55:30.966Z,12.57
2018-04-25T20:58:03.465Z,13.77
2018-04-25T21:00:36.106Z,12.00
2018-04-25T21:03:08.946Z,13.33
2018-04-25T21:05:41.550Z,12.87
2018-04-25T21:08:14.296Z,11.70
2018-04-25T21:10:47.550Z,12.07
2018-04-25T21:13:20.066Z,12.53
2018-04-25T21:15:53.361Z,13.30
2018-04-25T21:18:25.768Z,13.23
2018-04-25T21:20:58.514Z,13.77
2018-04-25T21:23:30.987Z,14.80
2018-04-25T21:26:11.275Z,14.60
2018-04-25T21:28:44.117Z,11.43
2018-04-25T21:31:17.531Z,11.07
2018-04-25T21:33:49.937Z,11.97
2018-04-25T21:36:22.675Z,11.23
2018-04-25T21:38:55.830Z,10.90
2018-04-25T21:41:28.717Z,10.47
2018-04-25T21:44:01.345Z,9.47
2018-04-25T21:46:34.466Z,10.70
2018-04-25T21:49:07.106Z,12.10
2018-04-25T21:51:40.175Z,11.03
2018-04-25T21:54:13.650Z,9.90
2018-04-25T21:56:46.152Z,12.97
2018-04-25T21:59:18.735Z,11.90
2018-04-25T22:01:51.291Z,12.80
2018-04-25T22:04:24.069Z,14.07
2018-04-25T22:06:56.477Z,14.83
2018-04-25T22:09:30.391Z,12.90
2018-04-25T22:12:02.845Z,14.57
2018-04-25T22:14:35.396Z,15.10
2018-04-25T22:17:08.026Z,15.17
2018-04-25T22:19:40.854Z,13.87
2018-04-25T22:22:14.042Z,14.90
2018-04-25T22:24:46.537Z,14.90
2018-04-25T22:27:19.296Z,15.40
2018-04-25T22:29:52.577Z,16.17
2018-04-25T22:32:25.268Z,18.13
2018-04-25T22:34:57.802Z,18.90
2018-04-25T22:37:30.376Z,17.70
2018-04-25T22:40:02.927Z,17.60
2018-04-25T22:42:35.577Z,19.60
2018-04-25T22:45:08.070Z,17.03
2018-04-25T22:47:40.490Z,19.40
2018-04-25T22:50:13.241Z,19.73
2018-04-25T22:52:46.540Z,17.83
2018-04-25T22:55:18.976Z,21.20
2018-04-25T22:57:52.054Z,19.20
2018-04-25T23:00:24.781Z,21.30
2018-04-25T23:02:57.375Z,21.57
2018-04-25T23:08:19.140Z,19.23
2018-04-25T23:10:51.959Z,22.63
2018-04-25T23:16:26.619Z,19.60
2018-04-25T23:18:59.279Z,21.90
2018-04-25T23:21:32.493Z,19.93
2018-04-25T23:24:05.001Z,20.87
2018-04-25T23:26:37.672Z,21.93
2018-04-25T23:29:10.840Z,21.77
2018-04-25T23:31:43.390Z,23.70
2018-04-25T23:34:15.810Z,21.07
2018-04-25T23:36:48.492Z,23.73
2018-04-25T23:39:21.035Z,21.90
2018-04-25T23:41:53.395Z,20.77
2018-04-25T23:44:25.804Z,20.23
2018-04-25T23:46:58.182Z,19.63
2018-04-25T23:49:31.412Z,20.60
2018-04-25T23:52:03.910Z,19.90
2018-04-25T23:54:36.367Z,20.50
2018-04-25T23:57:08.954Z,20.83
2018-04-25T23:59:41.635Z,20.37
